createdAt,value
2019-02-07T00:03:30.725Z,1006.85
2019-02-07T00:04:29.272Z,1006.86
2019-02-07T00:07:09.506Z,1006.82
2019-02-07T00:11:35.709Z,1006.8
2019-02-07T00:14:15.704Z,1006.67
2019-02-07T00:15:14.380Z,1006.69
2019-02-07T00:46:11.645Z,1006.39
2019-02-07T00:47:10.325Z,1006.37
2019-02-07T00:48:08.921Z,1006.33
2019-02-07T00:49:07.479Z,1006.37
2019-02-07T00:50:06.015Z,1006.29
2019-02-07T00:51:04.577Z,1006.33
2019-02-07T00:52:03.117Z,1006.32
2019-02-07T00:53:01.667Z,1006.34
2019-02-07T00:55:41.981Z,1006.31
2019-02-07T00:56:40.823Z,1006.26
2019-02-07T00:59:20.889Z,1006.27
2019-02-07T01:11:17.667Z,1006.09
2019-02-07T01:13:57.926Z,1006.09
2019-02-07T01:24:26.781Z,1006.03
2019-02-07T01:27:07.136Z,1006
2019-02-07T01:28:05.720Z,1005.98
2019-02-07T01:29:04.350Z,1006
2019-02-07T01:30:03.110Z,1005.98
2019-02-07T01:31:01.693Z,1005.95
2019-02-07T01:32:00.282Z,1005.93
2019-02-07T01:32:59.109Z,1005.9
2019-02-07T01:33:57.358Z,1005.88
2019-02-07T01:34:55.896Z,1005.91
2019-02-07T01:37:35.956Z,1005.9
2019-02-07T01:39:58.993Z,1005.84
2019-02-07T01:40:57.519Z,1005.84
2019-02-07T01:41:56.161Z,1005.81
2019-02-07T01:42:55.776Z,1005.82
2019-02-07T01:43:53.263Z,1005.76
2019-02-07T01:46:33.471Z,1005.78
2019-02-07T01:47:32.025Z,1005.78
2019-02-07T01:48:30.612Z,1005.76
2019-02-07T01:49:29.164Z,1005.76
2019-02-07T02:14:32.150Z,1005.6
2019-02-07T02:15:31.098Z,1005.6
2019-02-07T02:16:29.660Z,1005.61
2019-02-07T02:19:09.970Z,1005.64
2019-02-07T02:21:54.177Z,1005.57
2019-02-07T02:30:43.763Z,1005.51
2019-02-07T02:37:15.376Z,1005.3
2019-02-07T02:42:14.068Z,1005.25
2019-02-07T02:43:12.677Z,1005.26
2019-02-07T02:44:11.472Z,1005.3
2019-02-07T02:45:10.055Z,1005.22
2019-02-07T02:46:08.677Z,1005.23
2019-02-07T02:47:07.204Z,1005.24
2019-02-07T02:48:05.778Z,1005.25
2019-02-07T02:50:46.063Z,1005.13
2019-02-07T02:51:44.685Z,1005.16
2019-02-07T02:52:43.272Z,1005.15
2019-02-07T02:53:41.844Z,1005.12
2019-02-07T02:56:21.872Z,1005.16
2019-02-07T02:57:20.558Z,1005.05
2019-02-07T03:24:26.540Z,1004.76
2019-02-07T03:25:25.055Z,1004.81
2019-02-07T03:26:23.621Z,1004.87
2019-02-07T03:27:22.190Z,1004.8
2019-02-07T03:28:20.970Z,1004.77
2019-02-07T03:29:19.543Z,1004.67
2019-02-07T03:30:18.110Z,1004.67
2019-02-07T03:31:16.986Z,1004.61
2019-02-07T03:32:15.593Z,1004.66
2019-02-07T03:35:06.083Z,1004.55
2019-02-07T03:51:01.765Z,1004.39
2019-02-07T03:52:00.310Z,1004.47
2019-02-07T04:07:10.880Z,1004.27
2019-02-07T04:09:19.593Z,1004.16
2019-02-07T04:10:20.201Z,1004.15
2019-02-07T04:11:22.793Z,1004.16
2019-02-07T04:12:21.432Z,1004.16
2019-02-07T04:13:19.971Z,1004.17
2019-02-07T04:14:18.647Z,1004.24
2019-02-07T04:15:18.135Z,1004.24
2019-02-07T04:19:40.168Z,1004.17
2019-02-07T04:20:44.031Z,1004.11
2019-02-07T04:21:42.611Z,1004.07
2019-02-07T04:24:22.985Z,1004.15
2019-02-07T04:27:03.030Z,1004.07
2019-02-07T04:37:01.629Z,1004.05
2019-02-07T04:38:09.200Z,1004.07
2019-02-07T04:40:49.322Z,1004.06
2019-02-07T04:41:47.901Z,1004.07
2019-02-07T04:44:44.404Z,1004
2019-02-07T04:45:43.008Z,1004.02
2019-02-07T04:48:28.757Z,1004.01
2019-02-07T04:49:27.310Z,1004
2019-02-07T04:50:26.041Z,1004.1
2019-02-07T04:51:24.926Z,1004.07
2019-02-07T04:52:23.586Z,1004.08
2019-02-07T04:53:22.310Z,1004.05
2019-02-07T04:54:20.914Z,1004.04
2019-02-07T04:55:19.446Z,1004.08
2019-02-07T04:56:17.989Z,1004.08
2019-02-07T04:58:15.597Z,1003.99
2019-02-07T04:59:14.127Z,1003.93
2019-02-07T05:00:13.090Z,1003.98
2019-02-07T05:01:11.494Z,1003.97
2019-02-07T05:03:51.532Z,1003.91
2019-02-07T05:04:50.088Z,1003.91
2019-02-07T05:07:36.374Z,1003.76
2019-02-07T05:08:35.231Z,1003.78
2019-02-07T05:11:15.352Z,1003.87
2019-02-07T05:12:13.929Z,1003.82
2019-02-07T05:13:13.407Z,1003.86
2019-02-07T05:14:12.036Z,1003.85
2019-02-07T05:15:10.475Z,1003.86
2019-02-07T05:16:09.115Z,1003.79
2019-02-07T05:17:07.700Z,1003.77
2019-02-07T05:19:48.036Z,1003.92
2019-02-07T05:20:46.742Z,1003.96
2019-02-07T05:21:45.289Z,1004
2019-02-07T05:22:45.893Z,1004.02
2019-02-07T05:29:22.756Z,1004.01
2019-02-07T05:30:21.347Z,1004.02
2019-02-07T05:32:38.100Z,1004.07
2019-02-07T05:34:53.784Z,1004.06
2019-02-07T05:37:35.141Z,1004
2019-02-07T05:39:59.113Z,1003.84
2019-02-07T05:42:46.515Z,1003.73
2019-02-07T05:45:36.079Z,1003.65
2019-02-07T05:46:34.618Z,1003.55
2019-02-07T05:49:15.036Z,1003.52
2019-02-07T05:50:31.976Z,1003.66
2019-02-07T05:51:32.555Z,1003.72
2019-02-07T05:52:39.224Z,1003.67
2019-02-07T05:55:19.530Z,1003.46
2019-02-07T05:56:18.135Z,1003.47
2019-02-07T05:57:16.877Z,1003.49
2019-02-07T05:58:15.439Z,1003.5
2019-02-07T06:03:40.032Z,1003.27
2019-02-07T06:04:38.548Z,1003.32
2019-02-07T06:25:34.184Z,1003.21
2019-02-07T06:26:32.775Z,1003.2
2019-02-07T06:30:14.152Z,1003.28
2019-02-07T06:31:12.792Z,1003.25
2019-02-07T06:32:11.351Z,1003.27
2019-02-07T06:33:09.926Z,1003.17
2019-02-07T06:34:08.461Z,1003.22
2019-02-07T06:35:07.012Z,1003.23
2019-02-07T06:36:05.558Z,1003.21
2019-02-07T06:37:04.197Z,1003.24
2019-02-07T06:38:02.939Z,1003.22
2019-02-07T06:39:01.535Z,1003.18
2019-02-07T06:40:00.092Z,1003.16
2019-02-07T06:40:58.741Z,1003.25
2019-02-07T06:41:57.400Z,1003.17
2019-02-07T06:42:57.291Z,1003.18
2019-02-07T06:43:55.803Z,1003.27
2019-02-07T06:44:54.381Z,1003.2
2019-02-07T06:45:53.069Z,1003.23
2019-02-07T06:46:52.694Z,1003.21
2019-02-07T06:47:50.298Z,1003.25
2019-02-07T06:48:49.021Z,1003.2
2019-02-07T06:49:47.570Z,1003.23
2019-02-07T06:50:46.130Z,1003.26
2019-02-07T06:51:44.658Z,1003.25
2019-02-07T06:52:43.376Z,1003.22
2019-02-07T06:53:41.933Z,1003.27
2019-02-07T06:54:40.539Z,1003.23
2019-02-07T06:55:39.101Z,1003.23
2019-02-07T06:56:37.634Z,1003.17
2019-02-07T06:57:36.230Z,1003.17
2019-02-07T06:58:35.056Z,1003.14
2019-02-07T06:59:33.593Z,1003.18
2019-02-07T07:00:32.223Z,1003.23
2019-02-07T07:01:30.809Z,1003.18
2019-02-07T07:02:29.341Z,1003.2
2019-02-07T07:03:27.858Z,1003.2
2019-02-07T07:04:26.475Z,1003.2
2019-02-07T07:05:25.011Z,1003.3
2019-02-07T07:06:23.590Z,1003.23
2019-02-07T07:07:22.172Z,1003.2
2019-02-07T07:08:20.915Z,1003.25
2019-02-07T07:09:19.708Z,1003.28
2019-02-07T07:10:18.316Z,1003.23
2019-02-07T07:12:26.095Z,1003.29
2019-02-07T07:13:24.664Z,1003.22
2019-02-07T07:14:23.319Z,1003.16
2019-02-07T07:15:21.847Z,1003.13
2019-02-07T07:16:20.568Z,1003.13
2019-02-07T07:17:25.196Z,1003.04
2019-02-07T07:18:17.782Z,1003.07
2019-02-07T07:19:16.395Z,1002.98
2019-02-07T07:20:15.146Z,1002.96
2019-02-07T07:21:13.693Z,1002.94
2019-02-07T07:22:12.296Z,1002.94
2019-02-07T07:23:10.902Z,1002.85
2019-02-07T07:24:09.418Z,1002.87
2019-02-07T07:25:08.196Z,1002.85
2019-02-07T07:26:09.406Z,1002.86
2019-02-07T07:27:05.608Z,1002.83
2019-02-07T07:29:13.473Z,1002.81
2019-02-07T07:30:12.002Z,1002.76
2019-02-07T07:31:10.611Z,1002.66
2019-02-07T07:32:09.227Z,1002.67
2019-02-07T07:33:07.887Z,1002.65
2019-02-07T07:34:06.636Z,1002.64
2019-02-07T07:35:05.240Z,1002.65
2019-02-07T07:36:03.792Z,1002.67
2019-02-07T07:37:02.334Z,1002.72
2019-02-07T07:38:01.244Z,1002.7
2019-02-07T07:38:59.954Z,1002.69
2019-02-07T07:39:58.498Z,1002.72
2019-02-07T07:40:57.290Z,1002.66
2019-02-07T07:41:55.819Z,1002.56
2019-02-07T07:42:54.510Z,1002.58
2019-02-07T07:43:53.188Z,1002.57
2019-02-07T07:44:51.789Z,1002.53
2019-02-07T07:45:50.395Z,1002.52
2019-02-07T07:46:49.004Z,1002.5
2019-02-07T07:47:47.549Z,1002.52
2019-02-07T07:48:46.101Z,1002.52
2019-02-07T07:49:44.631Z,1002.48
2019-02-07T07:50:43.307Z,1002.51
2019-02-07T07:51:41.753Z,1002.48
2019-02-07T07:52:40.584Z,1002.49
2019-02-07T07:53:39.287Z,1002.45
2019-02-07T07:54:37.834Z,1002.47
2019-02-07T07:55:36.547Z,1002.39
2019-02-07T07:56:35.088Z,1002.43
2019-02-07T07:57:33.620Z,1002.47
2019-02-07T07:58:32.176Z,1002.43
2019-02-07T07:59:30.692Z,1002.47
2019-02-07T08:00:29.387Z,1002.41
2019-02-07T08:01:27.886Z,1002.44
2019-02-07T08:02:26.443Z,1002.48
2019-02-07T08:03:25.174Z,1002.5
2019-02-07T08:04:23.704Z,1002.47
2019-02-07T08:05:22.268Z,1002.46
2019-02-07T08:06:21.162Z,1002.48
2019-02-07T08:07:20.105Z,1002.41
2019-02-07T08:08:18.803Z,1002.45
2019-02-07T08:09:17.472Z,1002.46
2019-02-07T08:10:16.118Z,1002.41
2019-02-07T08:11:14.769Z,1002.44
2019-02-07T08:12:13.296Z,1002.45
2019-02-07T08:13:11.852Z,1002.45
2019-02-07T08:14:10.372Z,1002.43
2019-02-07T08:15:08.928Z,1002.4
2019-02-07T08:16:07.483Z,1002.45
2019-02-07T08:17:06.040Z,1002.39
2019-02-07T08:18:04.574Z,1002.43
2019-02-07T08:19:03.175Z,1002.44
2019-02-07T08:20:01.796Z,1002.38
2019-02-07T08:21:00.479Z,1002.42
2019-02-07T08:21:59.220Z,1002.45
2019-02-07T08:22:57.768Z,1002.45
2019-02-07T08:23:56.283Z,1002.42
2019-02-07T08:24:55.000Z,1002.41
2019-02-07T08:25:53.667Z,1002.42
2019-02-07T08:26:52.215Z,1002.41
2019-02-07T08:27:50.761Z,1002.47
2019-02-07T08:28:49.315Z,1002.44
2019-02-07T08:29:47.851Z,1002.49
2019-02-07T08:30:46.400Z,1002.47
2019-02-07T08:31:45.125Z,1002.46
2019-02-07T08:32:44.282Z,1002.56
2019-02-07T08:33:42.817Z,1002.43
2019-02-07T08:34:41.375Z,1002.49
2019-02-07T08:35:39.905Z,1002.53
2019-02-07T08:36:38.733Z,1002.46
2019-02-07T08:37:37.337Z,1002.53
2019-02-07T08:38:35.978Z,1002.5
2019-02-07T08:39:34.646Z,1002.48
2019-02-07T08:40:33.572Z,1002.45
2019-02-07T08:41:32.143Z,1002.42
2019-02-07T08:42:30.824Z,1002.37
2019-02-07T08:43:29.552Z,1002.35
2019-02-07T08:44:28.091Z,1002.36
2019-02-07T08:45:26.860Z,1002.37
2019-02-07T08:46:25.454Z,1002.36
2019-02-07T08:47:24.061Z,1002.36
2019-02-07T08:48:22.623Z,1002.38
2019-02-07T08:49:21.212Z,1002.32
2019-02-07T08:50:19.773Z,1002.33
2019-02-07T08:51:18.308Z,1002.26
2019-02-07T08:52:16.959Z,1002.23
2019-02-07T08:53:15.677Z,1002.27
2019-02-07T08:54:14.224Z,1002.28
2019-02-07T08:55:12.985Z,1002.26
2019-02-07T08:56:11.538Z,1002.32
2019-02-07T08:57:10.094Z,1002.35
2019-02-07T08:58:08.656Z,1002.33
2019-02-07T08:59:07.255Z,1002.32
2019-02-07T09:00:05.818Z,1002.33
2019-02-07T09:01:04.322Z,1002.31
2019-02-07T09:02:03.123Z,1002.3
2019-02-07T09:03:01.663Z,1002.3
2019-02-07T09:04:00.239Z,1002.24
2019-02-07T09:04:58.908Z,1002.2
2019-02-07T09:05:57.606Z,1002.22
2019-02-07T09:06:56.244Z,1002.22
2019-02-07T09:07:54.827Z,1002.18
2019-02-07T09:08:53.374Z,1002.18
2019-02-07T09:09:51.968Z,1002.18
2019-02-07T09:10:50.551Z,1002.19
2019-02-07T09:11:49.263Z,1002.16
2019-02-07T09:12:47.868Z,1002.15
2019-02-07T09:13:46.413Z,1002.19
2019-02-07T09:14:44.971Z,1002.12
2019-02-07T09:15:43.595Z,1002.14
2019-02-07T09:16:42.254Z,1002.12
2019-02-07T09:17:40.736Z,1002.12
2019-02-07T09:18:39.315Z,1002.12
2019-02-07T09:19:37.838Z,1002.08
2019-02-07T09:20:36.422Z,1002.08
2019-02-07T09:21:35.057Z,1002.16
2019-02-07T09:22:33.589Z,1002.18
2019-02-07T09:23:32.145Z,1002.23
2019-02-07T09:24:30.661Z,1002.27
2019-02-07T09:25:33.779Z,1002.23
2019-02-07T09:26:27.983Z,1002.19
2019-02-07T09:27:26.773Z,1002.19
2019-02-07T09:28:25.396Z,1002.16
2019-02-07T09:29:23.964Z,1002.1
2019-02-07T09:30:22.599Z,1001.99
2019-02-07T09:31:21.186Z,1001.98
2019-02-07T09:32:19.800Z,1002.01
2019-02-07T09:33:18.340Z,1001.95
2019-02-07T09:34:17.223Z,1002.06
2019-02-07T09:35:15.777Z,1002.07
2019-02-07T09:36:14.422Z,1002.05
2019-02-07T09:37:13.201Z,1002.1
2019-02-07T09:38:11.774Z,1002.1
2019-02-07T09:39:10.312Z,1002.1
2019-02-07T09:40:08.868Z,1002.16
2019-02-07T09:41:07.515Z,1002.19
2019-02-07T09:42:06.177Z,1002.17
2019-02-07T09:43:04.599Z,1002.2
2019-02-07T09:44:03.311Z,1002.23
2019-02-07T09:45:01.848Z,1002.23
2019-02-07T09:46:00.414Z,1002.21
2019-02-07T09:46:59.014Z,1002.27
2019-02-07T09:47:57.596Z,1002.3
2019-02-07T09:48:56.158Z,1002.39
2019-02-07T09:49:54.881Z,1002.41
2019-02-07T09:50:53.459Z,1002.35
2019-02-07T09:51:52.007Z,1002.32
2019-02-07T09:52:50.517Z,1002.4
2019-02-07T09:53:49.061Z,1002.4
2019-02-07T09:54:47.568Z,1002.36
2019-02-07T09:55:46.142Z,1002.36
2019-02-07T09:56:44.735Z,1002.34
2019-02-07T09:57:43.349Z,1002.34
2019-02-07T09:58:41.891Z,1002.33
2019-02-07T09:59:40.492Z,1002.32
2019-02-07T10:00:39.185Z,1002.27
2019-02-07T10:01:37.760Z,1002.32
2019-02-07T10:02:36.350Z,1002.35
2019-02-07T10:03:35.111Z,1002.38
2019-02-07T10:04:33.679Z,1002.33
2019-02-07T10:05:32.234Z,1002.4
2019-02-07T10:06:30.797Z,1002.35
2019-02-07T10:07:29.347Z,1002.34
2019-02-07T10:08:27.893Z,1002.34
2019-02-07T10:09:26.484Z,1002.3
2019-02-07T10:10:25.255Z,1002.24
2019-02-07T10:11:23.920Z,1002.29
2019-02-07T10:12:22.756Z,1002.28
2019-02-07T10:13:21.314Z,1002.31
2019-02-07T10:14:19.897Z,1002.32
2019-02-07T10:15:18.423Z,1002.3
2019-02-07T10:16:16.971Z,1002.28
2019-02-07T10:17:15.607Z,1002.27
2019-02-07T10:18:14.300Z,1002.33
2019-02-07T10:19:12.979Z,1002.33
2019-02-07T10:20:11.657Z,1002.33
2019-02-07T10:21:11.045Z,1002.34
2019-02-07T10:22:08.924Z,1002.38
2019-02-07T10:23:08.400Z,1002.34
2019-02-07T10:24:07.015Z,1002.37
2019-02-07T10:25:05.553Z,1002.39
2019-02-07T10:26:04.123Z,1002.4
2019-02-07T10:27:05.289Z,1002.44
2019-02-07T10:28:01.330Z,1002.39
2019-02-07T10:28:59.966Z,1002.36
2019-02-07T10:29:58.675Z,1002.4
2019-02-07T10:30:57.299Z,1002.33
2019-02-07T10:31:55.829Z,1002.4
2019-02-07T10:32:54.371Z,1002.44
2019-02-07T10:33:53.009Z,1002.42
2019-02-07T10:34:51.535Z,1002.4
2019-02-07T10:35:50.309Z,1002.42
2019-02-07T10:36:49.057Z,1002.36
2019-02-07T10:37:47.733Z,1002.38
2019-02-07T10:38:46.185Z,1002.49
2019-02-07T10:39:44.830Z,1002.48
2019-02-07T10:40:43.493Z,1002.49
2019-02-07T10:41:42.031Z,1002.4
2019-02-07T10:42:40.806Z,1002.4
2019-02-07T10:43:39.318Z,1002.39
2019-02-07T10:44:37.911Z,1002.32
2019-02-07T10:45:36.478Z,1002.26
2019-02-07T10:46:35.010Z,1002.27
2019-02-07T10:47:33.529Z,1002.25
2019-02-07T10:48:32.108Z,1002.27
2019-02-07T10:49:30.668Z,1002.21
2019-02-07T10:50:29.247Z,1002.14
2019-02-07T10:51:27.790Z,1002.14
2019-02-07T10:52:26.389Z,1002.12
2019-02-07T10:53:25.060Z,1002.12
2019-02-07T10:54:23.722Z,1002.13
2019-02-07T10:55:22.398Z,1002.12
2019-02-07T10:56:20.985Z,1002.13
2019-02-07T10:57:19.683Z,1002.1
2019-02-07T10:58:18.210Z,1002.16
2019-02-07T10:59:17.074Z,1002.16
2019-02-07T11:00:15.635Z,1002.15
2019-02-07T11:01:14.167Z,1002.19
2019-02-07T11:02:12.989Z,1002.22
2019-02-07T11:03:11.575Z,1002.14
2019-02-07T11:04:10.130Z,1002.14
2019-02-07T11:05:08.644Z,1002.17
2019-02-07T11:06:07.212Z,1002.18
2019-02-07T11:07:05.748Z,1002.15
2019-02-07T11:08:04.277Z,1002.13
2019-02-07T11:09:02.868Z,1002.02
2019-02-07T11:10:01.559Z,1001.97
2019-02-07T11:11:02.542Z,1001.98
2019-02-07T11:11:58.726Z,1001.97
2019-02-07T11:12:57.379Z,1001.97
2019-02-07T11:13:56.033Z,1001.96
2019-02-07T11:14:54.856Z,1001.91
2019-02-07T11:15:53.336Z,1001.88
2019-02-07T11:16:51.899Z,1001.85
2019-02-07T11:17:50.606Z,1001.9
2019-02-07T11:18:55.392Z,1001.94
2019-02-07T11:19:47.919Z,1001.92
2019-02-07T11:20:46.462Z,1001.97
2019-02-07T11:23:28.804Z,1002.06
2019-02-07T11:24:27.371Z,1002.07
2019-02-07T11:25:25.908Z,1001.96
2019-02-07T11:26:24.495Z,1002.04
2019-02-07T11:27:23.010Z,1002.03
2019-02-07T11:28:21.543Z,1002.01
2019-02-07T11:29:20.092Z,1002
2019-02-07T11:30:18.789Z,1001.96
2019-02-07T11:31:17.458Z,1001.96
2019-02-07T11:32:16.021Z,1001.95
2019-02-07T11:33:14.655Z,1001.93
2019-02-07T11:34:13.305Z,1001.97
2019-02-07T11:35:11.849Z,1001.95
2019-02-07T11:36:10.466Z,1001.93
2019-02-07T11:37:09.348Z,1001.94
2019-02-07T11:38:07.930Z,1001.96
2019-02-07T11:39:06.596Z,1002
2019-02-07T11:40:05.310Z,1002.01
2019-02-07T11:41:04.040Z,1002.03
2019-02-07T11:42:02.628Z,1002.02
2019-02-07T11:43:01.217Z,1002.01
2019-02-07T11:43:59.749Z,1002.05
2019-02-07T11:44:58.283Z,1001.99
2019-02-07T11:45:56.844Z,1001.99
2019-02-07T11:47:05.123Z,1002.05
2019-02-07T11:47:54.167Z,1002.03
2019-02-07T11:48:52.930Z,1001.99
2019-02-07T11:49:51.591Z,1002
2019-02-07T11:50:50.299Z,1001.99
2019-02-07T11:51:48.764Z,1001.86
2019-02-07T11:52:47.345Z,1001.82
2019-02-07T11:53:45.929Z,1001.78
2019-02-07T11:54:44.559Z,1001.86
2019-02-07T11:55:43.366Z,1001.86
2019-02-07T11:56:41.915Z,1001.8
2019-02-07T11:57:40.510Z,1001.77
2019-02-07T11:58:39.270Z,1001.82
2019-02-07T11:59:37.831Z,1001.85
2019-02-07T12:00:36.382Z,1001.76
2019-02-07T12:01:34.941Z,1001.76
2019-02-07T12:02:33.529Z,1001.82
2019-02-07T12:03:32.063Z,1001.77
2019-02-07T12:04:30.600Z,1001.83
2019-02-07T12:05:29.205Z,1001.75
2019-02-07T12:06:27.871Z,1001.72
2019-02-07T12:07:26.403Z,1001.69
2019-02-07T12:08:25.026Z,1001.77
2019-02-07T12:09:23.705Z,1001.7
2019-02-07T12:10:22.244Z,1001.69
2019-02-07T12:11:20.988Z,1001.72
2019-02-07T12:12:19.574Z,1001.69
2019-02-07T12:13:18.167Z,1001.72
2019-02-07T12:14:16.696Z,1001.7
2019-02-07T12:15:15.262Z,1001.7
2019-02-07T12:16:13.940Z,1001.71
2019-02-07T12:17:12.614Z,1001.73
2019-02-07T12:18:11.239Z,1001.68
2019-02-07T12:19:17.641Z,1001.69
2019-02-07T12:21:49.953Z,1001.71
2019-02-07T12:22:48.723Z,1001.68
2019-02-07T12:23:47.302Z,1001.66
2019-02-07T12:24:45.847Z,1001.62
2019-02-07T12:25:44.388Z,1001.69
2019-02-07T12:35:54.796Z,1001.42
2019-02-07T12:36:53.342Z,1001.42
2019-02-07T12:37:51.900Z,1001.34
2019-02-07T12:38:50.450Z,1001.43
2019-02-07T12:39:49.037Z,1001.42
2019-02-07T12:40:47.556Z,1001.41
2019-02-07T12:41:46.103Z,1001.45
2019-02-07T12:42:44.936Z,1001.39
2019-02-07T12:43:43.729Z,1001.44
2019-02-07T12:44:42.342Z,1001.42
2019-02-07T12:45:40.871Z,1001.48
2019-02-07T12:46:39.426Z,1001.43
2019-02-07T12:47:38.009Z,1001.42
2019-02-07T12:48:36.561Z,1001.38
2019-02-07T12:49:35.379Z,1001.36
2019-02-07T12:50:34.001Z,1001.38
2019-02-07T12:51:32.677Z,1001.4
2019-02-07T12:52:31.152Z,1001.39
2019-02-07T12:53:29.846Z,1001.42
2019-02-07T12:54:28.516Z,1001.44
2019-02-07T12:55:27.140Z,1001.37
2019-02-07T12:56:25.691Z,1001.31
2019-02-07T12:57:24.300Z,1001.31
2019-02-07T12:58:22.946Z,1001.31
2019-02-07T12:59:21.631Z,1001.35
2019-02-07T13:00:20.194Z,1001.31
2019-02-07T13:01:18.843Z,1001.3
2019-02-07T13:02:17.461Z,1001.35
2019-02-07T13:03:16.046Z,1001.31
2019-02-07T13:04:14.610Z,1001.34
2019-02-07T13:05:13.143Z,1001.3
2019-02-07T13:06:11.858Z,1001.33
2019-02-07T13:07:10.392Z,1001.33
2019-02-07T13:08:08.958Z,1001.3
2019-02-07T13:09:07.468Z,1001.26
2019-02-07T13:10:05.996Z,1001.24
2019-02-07T13:11:04.562Z,1001.29
2019-02-07T13:12:03.360Z,1001.31
2019-02-07T13:13:01.900Z,1001.32
2019-02-07T13:14:00.451Z,1001.3
2019-02-07T13:14:59.289Z,1001.29
2019-02-07T13:15:57.933Z,1001.25
2019-02-07T13:16:56.460Z,1001.28
2019-02-07T13:17:55.068Z,1001.24
2019-02-07T13:18:53.714Z,1001.28
2019-02-07T13:19:52.264Z,1001.28
2019-02-07T13:20:51.003Z,1001.32
2019-02-07T13:21:49.651Z,1001.2
2019-02-07T13:22:48.171Z,1001.21
2019-02-07T13:23:46.962Z,1001.23
2019-02-07T13:24:45.506Z,1001.22
2019-02-07T13:25:44.063Z,1001.26
2019-02-07T13:26:42.631Z,1001.28
2019-02-07T13:27:41.155Z,1001.24
2019-02-07T13:28:39.729Z,1001.28
2019-02-07T13:29:38.288Z,1001.35
2019-02-07T13:30:37.122Z,1001.35
2019-02-07T13:31:35.663Z,1001.38
2019-02-07T13:32:35.188Z,1001.38
2019-02-07T13:33:33.802Z,1001.36
2019-02-07T13:34:32.355Z,1001.39
2019-02-07T13:35:31.145Z,1001.39
2019-02-07T13:36:29.673Z,1001.47
2019-02-07T13:37:28.296Z,1001.43
2019-02-07T13:40:08.289Z,1001.47
2019-02-07T13:41:06.952Z,1001.51
2019-02-07T13:42:05.386Z,1001.61
2019-02-07T13:43:03.947Z,1001.62
2019-02-07T13:44:02.474Z,1001.61
2019-02-07T13:45:01.062Z,1001.58
2019-02-07T13:45:59.625Z,1001.63
2019-02-07T13:46:58.150Z,1001.61
2019-02-07T13:47:56.674Z,1001.66
2019-02-07T13:48:55.255Z,1001.62
2019-02-07T13:49:53.871Z,1001.64
2019-02-07T13:50:52.413Z,1001.66
2019-02-07T13:51:51.266Z,1001.74
2019-02-07T13:52:49.814Z,1001.75
2019-02-07T13:53:48.378Z,1001.77
2019-02-07T13:54:46.996Z,1001.76
2019-02-07T13:55:45.600Z,1001.79
2019-02-07T13:56:44.150Z,1001.75
2019-02-07T13:57:43.036Z,1001.79
2019-02-07T13:58:41.750Z,1001.82
2019-02-07T13:59:40.463Z,1001.82
2019-02-07T14:00:39.117Z,1001.82
2019-02-07T14:01:37.698Z,1001.85
2019-02-07T14:02:36.326Z,1001.78
2019-02-07T14:03:35.141Z,1001.76
2019-02-07T14:04:33.843Z,1001.8
2019-02-07T14:05:32.444Z,1001.75
2019-02-07T14:06:31.129Z,1001.79
2019-02-07T14:07:29.741Z,1001.86
2019-02-07T14:08:38.014Z,1001.89
2019-02-07T14:09:27.295Z,1001.89
2019-02-07T14:10:25.837Z,1001.9
2019-02-07T14:11:24.410Z,1001.88
2019-02-07T14:12:23.088Z,1001.91
2019-02-07T14:13:21.729Z,1001.87
2019-02-07T14:14:20.299Z,1001.9
2019-02-07T14:15:18.884Z,1001.94
2019-02-07T14:16:17.538Z,1001.97
2019-02-07T14:17:16.128Z,1001.92
2019-02-07T14:18:16.590Z,1001.92
2019-02-07T14:19:13.585Z,1001.9
2019-02-07T14:20:12.182Z,1001.96
2019-02-07T14:21:10.961Z,1001.88
2019-02-07T14:22:09.413Z,1001.9
2019-02-07T14:23:07.949Z,1001.93
2019-02-07T14:24:06.549Z,1001.9
2019-02-07T14:25:05.137Z,1001.9
2019-02-07T14:26:03.709Z,1001.94
2019-02-07T14:27:02.373Z,1001.86
2019-02-07T14:28:00.894Z,1001.92
2019-02-07T14:28:59.510Z,1001.95
2019-02-07T14:29:58.134Z,1001.91
2019-02-07T14:30:56.944Z,1001.96
2019-02-07T14:31:55.572Z,1001.98
2019-02-07T14:32:54.095Z,1001.95
2019-02-07T14:33:52.729Z,1002.01
2019-02-07T14:34:51.373Z,1002.03
2019-02-07T14:35:49.970Z,1002.08
2019-02-07T14:36:48.665Z,1002.03
2019-02-07T14:37:47.447Z,1002.11
2019-02-07T14:38:46.004Z,1002.16
2019-02-07T14:39:44.746Z,1002.19
2019-02-07T14:40:43.259Z,1002.22
2019-02-07T14:41:42.072Z,1002.17
2019-02-07T14:42:40.709Z,1002.19
2019-02-07T14:43:39.531Z,1002.22
2019-02-07T14:44:38.127Z,1002.2
2019-02-07T14:45:36.840Z,1002.18
2019-02-07T14:46:35.349Z,1002.17
2019-02-07T14:47:33.977Z,1002.12
2019-02-07T14:48:32.806Z,1002.18
2019-02-07T14:49:31.549Z,1002.19
2019-02-07T14:50:30.312Z,1002.17
2019-02-07T14:51:29.016Z,1002.18
2019-02-07T14:52:27.805Z,1002.19
2019-02-07T14:53:26.585Z,1002.2
2019-02-07T14:54:25.263Z,1002.24
2019-02-07T14:55:23.689Z,1002.22
2019-02-07T14:56:22.232Z,1002.11
2019-02-07T14:57:20.973Z,1002.19
2019-02-07T14:58:19.560Z,1002.23
2019-02-07T14:59:18.128Z,1002.27
2019-02-07T15:00:17.125Z,1002.34
2019-02-07T15:01:15.793Z,1002.36
2019-02-07T15:02:14.397Z,1002.29
2019-02-07T15:03:12.985Z,1002.31
2019-02-07T15:04:11.666Z,1002.32
2019-02-07T15:05:10.563Z,1002.29
2019-02-07T15:06:09.224Z,1002.32
2019-02-07T15:07:07.804Z,1002.35
2019-02-07T15:08:06.517Z,1002.37
2019-02-07T15:09:05.156Z,1002.41
2019-02-07T15:10:03.665Z,1002.47
2019-02-07T15:11:02.207Z,1002.5
2019-02-07T15:12:01.176Z,1002.51
2019-02-07T15:13:01.250Z,1002.44
2019-02-07T15:13:58.589Z,1002.49
2019-02-07T15:14:57.254Z,1002.41
2019-02-07T15:15:55.809Z,1002.37
2019-02-07T15:16:54.385Z,1002.3
2019-02-07T15:17:53.182Z,1002.27
2019-02-07T15:18:51.739Z,1002.31
2019-02-07T15:19:50.284Z,1002.31
2019-02-07T15:20:48.845Z,1002.33
2019-02-07T15:21:47.505Z,1002.33
2019-02-07T15:22:46.062Z,1002.35
2019-02-07T15:23:45.178Z,1002.36
2019-02-07T15:24:43.472Z,1002.36
2019-02-07T15:25:42.076Z,1002.35
2019-02-07T15:26:40.704Z,1002.33
2019-02-07T15:27:39.422Z,1002.39
2019-02-07T15:28:38.060Z,1002.36
2019-02-07T15:29:36.515Z,1002.38
2019-02-07T15:30:35.336Z,1002.35
2019-02-07T15:31:33.890Z,1002.36
2019-02-07T15:32:32.478Z,1002.37
2019-02-07T15:33:31.030Z,1002.35
2019-02-07T15:34:29.657Z,1002.33
2019-02-07T15:35:28.169Z,1002.35
2019-02-07T15:36:26.946Z,1002.29
2019-02-07T15:37:25.647Z,1002.31
2019-02-07T15:38:24.159Z,1002.3
2019-02-07T15:39:22.799Z,1002.33
2019-02-07T15:40:21.724Z,1002.34
2019-02-07T15:41:20.685Z,1002.35
2019-02-07T15:42:19.443Z,1002.34
2019-02-07T15:43:18.189Z,1002.38
2019-02-07T15:44:16.762Z,1002.34
2019-02-07T15:45:15.274Z,1002.37
2019-02-07T15:46:13.834Z,1002.36
2019-02-07T15:47:12.470Z,1002.42
2019-02-07T15:48:11.615Z,1002.37
2019-02-07T15:49:10.227Z,1002.36
2019-02-07T15:50:08.816Z,1002.42
2019-02-07T15:51:07.401Z,1002.4
2019-02-07T15:52:05.975Z,1002.4
2019-02-07T15:53:04.734Z,1002.44
2019-02-07T15:54:03.642Z,1002.43
2019-02-07T15:55:02.597Z,1002.43
2019-02-07T15:56:01.633Z,1002.43
2019-02-07T15:56:59.994Z,1002.45
2019-02-07T15:57:58.646Z,1002.42
2019-02-07T15:58:57.492Z,1002.5
2019-02-07T15:59:56.028Z,1002.48
2019-02-07T16:00:54.600Z,1002.5
2019-02-07T16:01:53.582Z,1002.52
2019-02-07T16:02:52.257Z,1002.51
2019-02-07T16:03:50.624Z,1002.48
2019-02-07T16:04:49.564Z,1002.49
2019-02-07T16:05:48.175Z,1002.51
2019-02-07T16:06:46.740Z,1002.47
2019-02-07T16:07:45.501Z,1002.5
2019-02-07T16:08:44.298Z,1002.52
2019-02-07T16:09:42.625Z,1002.49
2019-02-07T16:20:18.153Z,1002.4
2019-02-07T16:21:16.674Z,1002.47
2019-02-07T16:22:15.284Z,1002.44
2019-02-07T16:23:32.111Z,1002.41
2019-02-07T16:24:36.807Z,1002.44
2019-02-07T16:25:35.446Z,1002.4
2019-02-07T16:26:33.986Z,1002.44
2019-02-07T16:30:23.451Z,1002.39
2019-02-07T16:31:22.074Z,1002.43
2019-02-07T16:32:20.653Z,1002.38
2019-02-07T16:33:19.206Z,1002.38
2019-02-07T16:34:18.835Z,1002.4
2019-02-07T16:35:17.575Z,1002.38